createdAt,value
2022-09-11T00:01:23.337Z,1.40
2022-09-11T00:03:50.286Z,1.50
2022-09-11T00:06:29.226Z,1.23
2022-09-11T00:09:00.988Z,1.57
2022-09-11T00:11:33.751Z,1.50
2022-09-11T00:14:01.133Z,1.50
2022-09-11T00:16:37.196Z,1.40
2022-09-11T00:19:07.556Z,1.30
2022-09-11T00:21:34.769Z,1.80
2022-09-11T00:24:02.435Z,1.70
2022-09-11T00:26:29.411Z,1.67
2022-09-11T00:28:57.351Z,1.60
2022-09-11T00:31:30.014Z,1.60
2022-09-11T00:33:57.979Z,1.47
2022-09-11T00:36:29.114Z,1.83
2022-09-11T00:38:56.520Z,1.63
2022-09-11T00:41:31.133Z,1.77
2022-09-11T00:44:01.240Z,1.90
2022-09-11T00:46:34.486Z,1.90
2022-09-11T00:49:05.587Z,2.03
2022-09-11T00:51:34.803Z,1.70
2022-09-11T00:54:04.422Z,2.00
2022-09-11T00:56:35.456Z,1.80
2022-09-11T00:59:04.484Z,1.77
2022-09-11T01:01:31.715Z,1.90
2022-09-11T01:04:03.598Z,1.90
2022-09-11T01:06:31.771Z,1.77
2022-09-11T01:08:59.321Z,1.60
2022-09-11T01:12:01.584Z,2.03
2022-09-11T01:14:49.622Z,1.83
2022-09-11T01:17:35.262Z,1.60
2022-09-11T01:20:20.920Z,2.13
2022-09-11T01:23:29.083Z,1.63
2022-09-11T01:26:20.159Z,1.67
2022-09-11T01:29:06.822Z,1.83
2022-09-11T01:32:01.093Z,1.57
2022-09-11T01:34:47.213Z,1.70
2022-09-11T01:37:24.085Z,1.60
2022-09-11T01:40:03.768Z,1.90
2022-09-11T01:42:39.591Z,1.70
2022-09-11T01:45:07.543Z,1.93
2022-09-11T01:47:36.095Z,1.50
2022-09-11T01:50:11.795Z,1.77
2022-09-11T01:52:50.397Z,1.50
2022-09-11T01:55:22.828Z,1.60
2022-09-11T01:58:03.197Z,1.83
2022-09-11T02:00:35.559Z,1.63
2022-09-11T02:03:31.549Z,1.70
2022-09-11T02:06:12.107Z,1.50
2022-09-11T02:08:55.719Z,1.70
2022-09-11T02:11:24.267Z,1.70
2022-09-11T02:14:10.504Z,1.43
2022-09-11T02:17:24.277Z,1.60
2022-09-11T02:19:54.629Z,1.60
2022-09-11T02:22:22.147Z,1.70
2022-09-11T02:24:50.174Z,1.70
2022-09-11T02:27:22.898Z,1.70
2022-09-11T02:29:50.922Z,1.90
2022-09-11T02:32:18.883Z,1.97
2022-09-11T02:34:48.476Z,1.97
2022-09-11T02:37:49.421Z,2.13
2022-09-11T02:40:20.011Z,1.90
2022-09-11T02:43:08.711Z,1.87
2022-09-11T02:45:58.120Z,2.10
2022-09-11T02:48:38.702Z,2.00
2022-09-11T02:51:05.723Z,2.20
2022-09-11T02:54:04.284Z,2.20
2022-09-11T02:56:57.362Z,2.20
2022-09-11T02:59:30.928Z,2.40
2022-09-11T03:02:02.158Z,2.40
2022-09-11T03:04:30.377Z,2.10
2022-09-11T03:06:58.730Z,2.13
2022-09-11T03:09:25.890Z,2.20
2022-09-11T03:11:58.520Z,2.50
2022-09-11T03:14:25.341Z,2.17
2022-09-11T03:16:52.367Z,2.20
2022-09-11T03:19:19.935Z,2.47
2022-09-11T03:21:46.900Z,2.57
2022-09-11T03:24:15.780Z,3.20
2022-09-11T03:26:43.468Z,3.30
2022-09-11T03:29:10.392Z,3.17
2022-09-11T03:31:39.241Z,3.13
2022-09-11T03:34:07.033Z,2.70
2022-09-11T03:36:36.903Z,2.70
2022-09-11T03:39:05.425Z,3.27
2022-09-11T03:41:32.793Z,3.13
2022-09-11T03:44:00.049Z,3.00
2022-09-11T03:46:27.935Z,2.60
2022-09-11T03:48:54.863Z,3.13
2022-09-11T03:51:22.088Z,3.60
2022-09-11T03:53:49.156Z,3.30
2022-09-11T03:56:16.114Z,3.60
2022-09-11T03:58:48.344Z,3.80
2022-09-11T04:01:19.135Z,3.60
2022-09-11T04:03:46.649Z,3.73
2022-09-11T04:06:22.509Z,3.93
2022-09-11T04:08:49.701Z,3.37
2022-09-11T04:11:17.331Z,3.63
2022-09-11T04:13:44.792Z,3.97
2022-09-11T04:16:17.286Z,3.83
2022-09-11T04:18:47.692Z,3.90
2022-09-11T04:21:18.422Z,4.10
2022-09-11T04:23:56.556Z,3.97
2022-09-11T04:26:26.940Z,4.23
2022-09-11T04:29:01.226Z,3.80
2022-09-11T04:31:28.889Z,4.70
2022-09-11T04:33:57.977Z,4.57
2022-09-11T04:36:30.123Z,4.10
2022-09-11T04:38:59.034Z,3.80
2022-09-11T04:41:27.352Z,4.60
2022-09-11T04:43:59.114Z,4.13
2022-09-11T04:46:30.007Z,4.67
2022-09-11T04:49:00.126Z,4.50
2022-09-11T04:51:32.802Z,4.53
2022-09-11T04:54:00.990Z,4.53
2022-09-11T04:56:40.197Z,5.23
2022-09-11T04:59:16.096Z,5.10
2022-09-11T05:01:50.676Z,5.60
2022-09-11T05:04:25.333Z,5.17
2022-09-11T05:06:54.041Z,5.20
2022-09-11T05:09:20.990Z,5.30
2022-09-11T05:11:48.820Z,4.80
2022-09-11T05:14:17.088Z,5.50
2022-09-11T05:16:46.164Z,5.37
2022-09-11T05:19:15.296Z,5.00
2022-09-11T05:21:44.383Z,4.90
2022-09-11T05:24:11.569Z,5.43
2022-09-11T05:26:40.483Z,6.10
2022-09-11T05:29:12.376Z,5.97
2022-09-11T05:31:47.757Z,6.80
2022-09-11T05:34:17.569Z,6.67
2022-09-11T05:36:45.969Z,6.60
2022-09-11T05:39:13.150Z,6.87
2022-09-11T05:41:40.900Z,7.10
2022-09-11T05:44:08.085Z,7.87
2022-09-11T05:46:37.551Z,8.27
2022-09-11T05:49:05.735Z,8.27
2022-09-11T05:51:35.807Z,7.83
2022-09-11T05:54:04.187Z,8.03
2022-09-11T05:56:32.446Z,9.23
2022-09-11T05:59:03.120Z,8.67
2022-09-11T06:01:34.973Z,8.40
2022-09-11T06:04:14.194Z,8.40
2022-09-11T06:06:44.079Z,9.17
2022-09-11T06:09:11.080Z,9.20
2022-09-11T06:11:37.962Z,9.27
2022-09-11T06:14:07.322Z,9.40
2022-09-11T06:16:35.259Z,9.43
2022-09-11T06:19:14.725Z,9.00
2022-09-11T06:21:42.614Z,9.10
2022-09-11T06:24:19.504Z,8.73
2022-09-11T06:26:46.672Z,9.10
2022-09-11T06:29:16.101Z,9.87
2022-09-11T06:31:49.715Z,9.93
2022-09-11T06:34:19.789Z,9.50
2022-09-11T06:36:51.795Z,8.93
2022-09-11T06:39:23.183Z,9.87
2022-09-11T06:41:51.357Z,9.37
2022-09-11T06:44:30.321Z,9.97
2022-09-11T06:47:00.122Z,9.73
2022-09-11T06:49:27.456Z,9.40
2022-09-11T06:52:20.422Z,9.73
2022-09-11T06:55:00.889Z,10.53
2022-09-11T06:57:28.754Z,10.17
2022-09-11T06:59:58.048Z,10.83
2022-09-11T07:02:25.754Z,11.60
2022-09-11T07:04:57.286Z,11.77
2022-09-11T07:07:33.610Z,11.87
2022-09-11T07:10:04.972Z,10.33
2022-09-11T07:12:32.878Z,10.40
2022-09-11T07:14:59.923Z,10.60
2022-09-11T07:17:26.906Z,10.53
2022-09-11T07:19:53.956Z,11.23
2022-09-11T07:22:22.241Z,10.60
2022-09-11T07:24:51.156Z,10.67
2022-09-11T07:27:19.365Z,11.53
2022-09-11T07:29:47.233Z,11.10
2022-09-11T07:32:14.158Z,11.20
2022-09-11T07:34:41.391Z,10.17
2022-09-11T07:37:10.552Z,10.50
2022-09-11T07:39:38.992Z,9.90
2022-09-11T07:42:15.936Z,10.13
2022-09-11T07:44:43.680Z,9.90
2022-09-11T07:47:10.839Z,10.00
2022-09-11T07:49:42.566Z,9.77
2022-09-11T07:52:12.635Z,9.97
2022-09-11T07:54:48.343Z,9.77
2022-09-11T07:57:16.158Z,9.63
2022-09-11T07:59:43.089Z,9.47
2022-09-11T08:02:11.805Z,10.23
2022-09-11T08:04:39.230Z,8.93
2022-09-11T08:07:06.884Z,9.40
2022-09-11T08:09:35.170Z,9.27
2022-09-11T08:12:04.304Z,9.53
2022-09-11T08:14:33.037Z,9.50
2022-09-11T08:17:07.828Z,8.93
2022-09-11T08:19:37.295Z,8.80
2022-09-11T08:22:04.411Z,8.73
2022-09-11T08:24:35.948Z,8.30
2022-09-11T08:27:06.076Z,8.63
2022-09-11T08:29:35.997Z,8.67
2022-09-11T08:32:04.024Z,8.60
2022-09-11T08:34:33.135Z,9.87
2022-09-11T08:37:00.015Z,8.50
2022-09-11T08:39:29.432Z,9.37
2022-09-11T08:42:07.762Z,10.10
2022-09-11T08:44:48.774Z,9.67
2022-09-11T08:47:31.224Z,8.10
2022-09-11T08:50:08.166Z,8.87
2022-09-11T08:52:36.777Z,8.47
2022-09-11T08:55:13.630Z,8.20
2022-09-11T08:57:52.123Z,7.70
2022-09-11T09:00:25.043Z,8.07
2022-09-11T09:03:24.515Z,7.73
2022-09-11T09:06:17.583Z,8.07
2022-09-11T09:08:53.343Z,7.70
2022-09-11T09:11:31.092Z,7.37
2022-09-11T09:14:19.415Z,7.73
2022-09-11T09:17:15.624Z,7.37
2022-09-11T09:20:03.937Z,7.47
2022-09-11T09:23:17.498Z,7.37
2022-09-11T09:25:46.536Z,7.10
2022-09-11T09:28:32.226Z,7.00
2022-09-11T09:31:04.546Z,7.10
2022-09-11T09:33:46.432Z,6.90
2022-09-11T09:36:21.414Z,7.07
2022-09-11T09:38:49.286Z,7.13
2022-09-11T09:41:22.893Z,7.03
2022-09-11T09:43:55.239Z,6.83
2022-09-11T09:46:51.246Z,6.87
2022-09-11T09:49:24.233Z,6.73
2022-09-11T09:51:54.517Z,6.43
2022-09-11T09:54:23.959Z,6.57
2022-09-11T09:57:02.541Z,6.67
2022-09-11T09:59:45.940Z,6.73
2022-09-11T10:02:13.077Z,7.00
2022-09-11T10:04:39.992Z,6.63
2022-09-11T10:07:11.486Z,6.50
2022-09-11T10:09:48.609Z,7.07
2022-09-11T10:12:27.983Z,6.47
2022-09-11T10:15:01.657Z,6.63
2022-09-11T10:17:29.421Z,5.80
2022-09-11T10:20:12.279Z,6.03
2022-09-11T10:22:39.238Z,6.20
2022-09-11T10:25:16.560Z,6.63
2022-09-11T10:28:05.804Z,5.90
2022-09-11T10:30:41.648Z,6.00
2022-09-11T10:33:31.744Z,5.73
2022-09-11T10:36:01.568Z,6.37
2022-09-11T10:38:52.999Z,6.30
2022-09-11T10:41:27.856Z,6.00
2022-09-11T10:44:03.236Z,6.47
2022-09-11T10:46:41.406Z,6.07
2022-09-11T10:49:19.464Z,5.50
2022-09-11T10:52:22.290Z,5.90
2022-09-11T10:55:06.198Z,6.30
2022-09-11T10:57:52.396Z,5.17
2022-09-11T11:00:30.655Z,5.30
2022-09-11T11:03:23.140Z,5.40
2022-09-11T11:05:50.102Z,5.27
2022-09-11T11:08:47.959Z,5.27
2022-09-11T11:11:34.134Z,5.00
2022-09-11T11:15:05.427Z,5.03
2022-09-11T11:17:32.335Z,5.00
2022-09-11T11:20:07.687Z,5.37
2022-09-11T11:23:16.382Z,5.30
2022-09-11T11:26:12.774Z,5.20
2022-09-11T11:29:11.909Z,4.77
2022-09-11T11:32:09.774Z,4.97
2022-09-11T11:35:26.705Z,5.17
2022-09-11T11:38:09.590Z,5.17
2022-09-11T11:40:46.300Z,5.47
2022-09-11T11:43:18.963Z,4.70
2022-09-11T11:45:51.239Z,5.37
2022-09-11T11:48:18.137Z,4.97
2022-09-11T11:50:52.997Z,4.97
2022-09-11T11:53:28.842Z,5.03
2022-09-11T11:56:14.903Z,4.87
2022-09-11T11:59:01.544Z,5.10
2022-09-11T12:01:58.672Z,4.70
2022-09-11T12:04:37.685Z,5.20
2022-09-11T12:07:05.158Z,4.73
2022-09-11T12:09:33.905Z,5.13
2022-09-11T12:12:06.468Z,5.30
2022-09-11T12:14:36.274Z,4.90
2022-09-11T12:17:22.116Z,5.70
2022-09-11T12:20:11.108Z,5.57
2022-09-11T12:22:46.960Z,6.00
2022-09-11T12:25:19.986Z,5.53
2022-09-11T12:27:48.833Z,5.63
2022-09-11T12:30:18.572Z,5.53
2022-09-11T12:32:49.830Z,5.47
2022-09-11T12:35:48.446Z,4.97
2022-09-11T12:38:30.337Z,5.33
2022-09-11T12:41:02.023Z,4.83
2022-09-11T12:43:34.028Z,4.70
2022-09-11T12:46:05.396Z,4.67
2022-09-11T12:49:05.702Z,4.60
2022-09-11T12:51:51.146Z,4.57
2022-09-11T12:54:24.147Z,4.83
2022-09-11T12:57:05.331Z,5.30
2022-09-11T12:59:41.139Z,4.97
2022-09-11T13:02:44.688Z,5.00
2022-09-11T13:05:27.280Z,4.70
2022-09-11T13:07:58.029Z,4.43
2022-09-11T13:10:33.413Z,4.57
2022-09-11T13:13:06.030Z,4.47
2022-09-11T13:15:34.220Z,4.37
2022-09-11T13:18:01.159Z,4.30
2022-09-11T13:20:28.302Z,4.40
2022-09-11T13:23:18.476Z,4.60
2022-09-11T13:25:45.482Z,4.43
2022-09-11T13:28:21.383Z,4.60
2022-09-11T13:30:57.579Z,5.00
2022-09-11T13:33:29.164Z,4.70
2022-09-11T13:36:02.757Z,4.73
2022-09-11T13:38:32.319Z,4.50
2022-09-11T13:41:06.969Z,5.50
2022-09-11T13:43:37.980Z,5.30
2022-09-11T13:46:32.371Z,5.07
2022-09-11T13:49:14.516Z,4.90
2022-09-11T13:51:46.874Z,4.60
2022-09-11T13:54:38.228Z,4.30
2022-09-11T13:57:13.918Z,4.23
2022-09-11T13:59:44.563Z,4.30
2022-09-11T14:02:41.852Z,4.27
2022-09-11T14:05:15.735Z,4.53
2022-09-11T14:07:56.583Z,4.30
2022-09-11T14:10:28.238Z,4.00
2022-09-11T14:13:05.083Z,3.97
2022-09-11T14:15:42.321Z,4.20
2022-09-11T14:18:25.932Z,4.20
2022-09-11T14:20:55.029Z,4.30
2022-09-11T14:23:27.582Z,4.10
2022-09-11T14:26:09.939Z,4.23
2022-09-11T14:28:41.776Z,4.17
2022-09-11T14:31:11.292Z,4.10
2022-09-11T14:33:38.553Z,4.17
2022-09-11T14:36:10.416Z,4.10
2022-09-11T14:38:38.282Z,4.20
2022-09-11T14:41:07.165Z,4.57
2022-09-11T14:43:37.492Z,4.77
2022-09-11T14:46:04.567Z,4.57
2022-09-11T14:48:34.444Z,4.83
2022-09-11T14:51:13.937Z,4.60
2022-09-11T14:53:44.825Z,4.43
2022-09-11T14:56:26.235Z,4.60
2022-09-11T14:59:00.627Z,5.27
2022-09-11T15:01:50.709Z,5.00
2022-09-11T15:04:45.072Z,5.00
2022-09-11T15:07:24.673Z,4.53
2022-09-11T15:09:55.384Z,4.50
2022-09-11T15:12:34.460Z,4.70
2022-09-11T15:15:02.950Z,4.70
2022-09-11T15:18:33.433Z,4.33
2022-09-11T15:28:12.486Z,5.80
2022-09-11T15:30:43.305Z,5.67
2022-09-11T15:33:19.212Z,6.13
2022-09-11T15:35:56.877Z,5.97
2022-09-11T15:39:06.917Z,5.70
2022-09-11T15:41:52.823Z,5.73
2022-09-11T15:44:42.467Z,5.70
2022-09-11T15:47:37.563Z,6.10
2022-09-11T15:50:08.411Z,5.47
2022-09-11T15:52:53.715Z,5.17
2022-09-11T15:55:30.196Z,5.30
2022-09-11T15:58:11.855Z,5.10
2022-09-11T16:00:47.681Z,5.57
2022-09-11T16:03:17.931Z,5.03
2022-09-11T16:05:56.485Z,4.77
2022-09-11T16:08:28.095Z,4.73
2022-09-11T16:11:37.521Z,5.10
2022-09-11T16:14:51.529Z,4.73
2022-09-11T16:17:57.390Z,4.83
2022-09-11T16:20:39.789Z,5.00
2022-09-11T16:23:31.334Z,5.30
2022-09-11T16:26:34.205Z,5.20
2022-09-11T16:29:42.887Z,5.00
2022-09-11T16:32:41.844Z,5.53
2022-09-11T16:35:17.066Z,5.30
2022-09-11T16:37:56.140Z,5.90
2022-09-11T16:40:28.584Z,4.90
2022-09-11T16:43:21.335Z,5.03
2022-09-11T16:46:01.840Z,4.97
2022-09-11T16:48:33.652Z,4.83
2022-09-11T16:51:09.392Z,5.00
2022-09-11T16:53:56.524Z,5.37
2022-09-11T16:56:46.043Z,4.80
2022-09-11T16:59:26.507Z,4.87
2022-09-11T17:01:59.764Z,4.97
2022-09-11T17:13:26.724Z,4.90
2022-09-11T17:16:15.965Z,5.20
2022-09-11T17:18:56.926Z,5.37
2022-09-11T17:21:29.498Z,5.20
2022-09-11T17:24:00.411Z,5.33
2022-09-11T17:26:32.060Z,5.20
2022-09-11T17:29:03.671Z,6.00
2022-09-11T17:31:31.663Z,5.40
2022-09-11T17:33:58.868Z,5.37
2022-09-11T17:36:26.178Z,5.10
2022-09-11T17:38:59.639Z,4.97
2022-09-11T17:41:29.869Z,5.33
2022-09-11T17:44:17.175Z,5.40
2022-09-11T17:46:46.745Z,4.67
2022-09-11T17:49:13.919Z,5.20
2022-09-11T17:51:41.036Z,5.10
2022-09-11T17:54:08.108Z,5.13
2022-09-11T17:56:35.174Z,5.13
2022-09-11T17:59:02.330Z,5.10
2022-09-11T18:01:31.594Z,5.37
2022-09-11T18:04:03.887Z,5.20
2022-09-11T18:06:36.465Z,5.93
2022-09-11T18:09:18.292Z,5.20
2022-09-11T18:11:52.442Z,5.50
2022-09-11T18:14:20.059Z,5.47
2022-09-11T18:16:50.970Z,5.50
2022-09-11T18:19:28.465Z,5.87
2022-09-11T18:22:05.971Z,5.40
2022-09-11T18:24:33.461Z,5.30
2022-09-11T18:27:01.277Z,5.50
2022-09-11T18:29:36.398Z,6.13
2022-09-11T18:32:10.203Z,5.67
2022-09-11T18:34:37.572Z,5.40
2022-09-11T18:37:05.123Z,5.40
2022-09-11T18:39:37.898Z,5.20
2022-09-11T18:42:07.617Z,5.60
2022-09-11T18:44:34.909Z,5.43
2022-09-11T18:47:01.999Z,5.67
2022-09-11T18:49:29.190Z,5.90
2022-09-11T18:51:56.224Z,5.53
2022-09-11T18:54:23.771Z,5.60
2022-09-11T18:56:52.200Z,5.67
2022-09-11T18:59:20.278Z,5.40
2022-09-11T19:01:47.699Z,5.53
2022-09-11T19:04:16.406Z,5.23
2022-09-11T19:06:46.658Z,6.03
2022-09-11T19:09:14.168Z,5.80
2022-09-11T19:11:42.005Z,5.40
2022-09-11T19:14:11.976Z,5.63
2022-09-11T19:16:39.628Z,5.07
2022-09-11T19:19:07.568Z,5.17
2022-09-11T19:21:34.693Z,5.10
2022-09-11T19:24:02.068Z,5.03
2022-09-11T19:26:31.771Z,5.20
2022-09-11T19:29:00.300Z,5.20
2022-09-11T19:31:29.666Z,5.13
2022-09-11T19:34:01.630Z,5.17
2022-09-11T19:36:30.963Z,5.27
2022-09-11T19:39:01.184Z,5.00
2022-09-11T19:41:30.942Z,5.07
2022-09-11T19:44:00.396Z,4.87
2022-09-11T19:46:28.725Z,4.77
2022-09-11T19:48:57.634Z,4.77
2022-09-11T19:51:27.444Z,5.53
2022-09-11T19:53:56.590Z,4.83
2022-09-11T19:56:27.634Z,4.97
2022-09-11T19:58:55.622Z,5.00
2022-09-11T20:01:25.132Z,5.30
2022-09-11T20:03:54.124Z,5.43
2022-09-11T20:06:23.673Z,5.13
2022-09-11T20:08:59.181Z,5.13
2022-09-11T20:11:35.027Z,4.97
2022-09-11T20:14:02.187Z,5.07
2022-09-11T20:16:29.311Z,4.93
2022-09-11T20:19:00.396Z,4.90
2022-09-11T20:21:27.509Z,5.07
2022-09-11T20:23:55.871Z,5.60
2022-09-11T20:26:25.459Z,5.03
2022-09-11T20:28:57.815Z,4.90
2022-09-11T20:31:31.593Z,4.87
2022-09-11T20:34:00.704Z,4.77
2022-09-11T20:36:30.035Z,4.90
2022-09-11T20:39:00.057Z,5.00
2022-09-11T20:41:29.969Z,5.10
2022-09-11T20:43:59.957Z,5.57
2022-09-11T20:46:27.404Z,5.10
2022-09-11T20:48:54.596Z,5.10
2022-09-11T20:51:22.840Z,5.23
2022-09-11T20:53:50.354Z,4.80
2022-09-11T20:56:20.628Z,4.70
2022-09-11T20:58:47.999Z,4.83
2022-09-11T21:01:18.277Z,4.73
2022-09-11T21:03:47.062Z,4.87
2022-09-11T21:06:14.208Z,5.00
2022-09-11T21:08:42.306Z,4.87
2022-09-11T21:11:09.918Z,4.80
2022-09-11T21:13:37.856Z,4.80
2022-09-11T21:16:07.416Z,4.47
2022-09-11T21:18:34.784Z,4.90
2022-09-11T21:21:01.880Z,5.13
2022-09-11T21:23:29.112Z,4.90
2022-09-11T21:25:56.284Z,5.07
2022-09-11T21:28:23.327Z,5.60
2022-09-11T21:30:51.040Z,5.17
2022-09-11T21:33:18.413Z,5.43
2022-09-11T21:35:52.438Z,5.40
2022-09-11T21:38:24.762Z,5.57
2022-09-11T21:40:52.355Z,5.37
2022-09-11T21:43:19.285Z,5.50
2022-09-11T21:45:46.485Z,5.80
2022-09-11T21:48:13.567Z,5.27
2022-09-11T21:50:40.627Z,6.43
2022-09-11T21:53:08.820Z,5.87
2022-09-11T21:55:44.453Z,9.07
2022-09-11T21:58:20.105Z,5.17
2022-09-11T22:00:48.770Z,5.77
2022-09-11T22:03:18.610Z,5.10
2022-09-11T22:05:49.118Z,5.83
2022-09-11T22:08:18.547Z,5.77
2022-09-11T22:10:50.637Z,5.50
2022-09-11T22:13:19.297Z,6.10
2022-09-11T22:15:49.547Z,6.00
2022-09-11T22:18:17.600Z,6.00
2022-09-11T22:20:44.581Z,6.13
2022-09-11T22:23:23.543Z,5.70
2022-09-11T22:26:01.284Z,6.10
2022-09-11T22:28:28.446Z,5.63
2022-09-11T22:30:55.503Z,5.60
2022-09-11T22:33:22.366Z,5.90
2022-09-11T22:35:49.645Z,6.10
2022-09-11T22:38:16.887Z,5.77
2022-09-11T22:40:43.784Z,5.97
2022-09-11T22:43:10.667Z,5.13
2022-09-11T22:45:37.531Z,5.20
2022-09-11T22:48:04.963Z,4.90
2022-09-11T22:50:33.331Z,5.10
2022-09-11T22:53:00.244Z,5.73
2022-09-11T22:55:27.355Z,5.60
2022-09-11T22:57:54.256Z,4.97
2022-09-11T23:00:21.335Z,5.40
2022-09-11T23:02:48.271Z,5.17
2022-09-11T23:05:33.595Z,5.50
2022-09-11T23:08:00.738Z,5.83
2022-09-11T23:10:27.697Z,5.47
2022-09-11T23:12:54.971Z,5.80
2022-09-11T23:15:22.396Z,6.70
2022-09-11T23:17:49.457Z,6.40
2022-09-11T23:20:16.478Z,5.67
2022-09-11T23:22:43.305Z,5.00
2022-09-11T23:25:11.217Z,5.37
2022-09-11T23:27:38.343Z,5.97
2022-09-11T23:30:06.017Z,5.70
2022-09-11T23:32:33.014Z,5.80
2022-09-11T23:34:59.954Z,5.70
2022-09-11T23:37:26.886Z,5.97
2022-09-11T23:39:53.823Z,6.10
2022-09-11T23:42:20.776Z,6.43
2022-09-11T23:44:47.684Z,6.70
2022-09-11T23:47:15.050Z,6.47
2022-09-11T23:49:43.341Z,7.07
2022-09-11T23:52:10.286Z,6.07
2022-09-11T23:54:37.388Z,6.13
2022-09-11T23:57:05.655Z,7.77
2022-09-11T23:59:35.846Z,7.60
